Time;durP1;ratioP1;P1;durP2;ratioP2;P2;SDS_P1;SDS_P2;PMS_P1;PMS_P2;Temp;Humidity;BMP_temperature;BMP_pressure;BME280_temperature;BME280_humidity;BME280_pressure;Samples;Min_cycle;Max_cycle;Signal;HPM_P1;HPM_P2
2023/12/26 00:01:48;;;;;;;15.98;6.47;;;9.20;99.90;;;;;;5061784;28;20445;-70
2023/12/26 00:04:15;;;;;;;17.25;5.93;;;9.20;99.90;;;;;;5060670;28;20064;-70
2023/12/26 00:06:43;;;;;;;20.05;6.30;;;9.20;99.90;;;;;;5061580;28;20040;-69
2023/12/26 00:09:11;;;;;;;14.75;6.22;;;9.20;99.90;;;;;;5060116;28;20123;-71
2023/12/26 00:11:44;;;;;;;15.65;5.50;;;9.20;99.90;;;;;;5060813;28;20031;-69
2023/12/26 00:14:10;;;;;;;17.02;5.78;;;9.20;99.90;;;;;;5061177;28;20051;-69
2023/12/26 00:16:35;;;;;;;18.85;5.03;;;9.20;99.90;;;;;;5061741;28;20029;-69
2023/12/26 00:19:01;;;;;;;14.68;5.07;;;9.20;99.90;;;;;;5061716;28;20039;-69
2023/12/26 00:21:26;;;;;;;10.25;4.45;;;9.20;99.90;;;;;;5061646;28;20465;-69
2023/12/26 00:23:55;;;;;;;12.82;4.72;;;9.20;99.90;;;;;;5060481;28;20071;-68
2023/12/26 00:26:21;;;;;;;17.67;4.00;;;9.10;99.90;;;;;;5060624;28;20017;-70
2023/12/26 00:28:47;;;;;;;15.82;4.25;;;9.20;99.90;;;;;;5060903;28;20067;-70
2023/12/26 00:31:13;;;;;;;14.95;4.10;;;9.10;99.90;;;;;;5060346;28;20020;-69
2023/12/26 00:33:38;;;;;;;10.80;3.88;;;9.10;99.90;;;;;;5060997;28;20051;-70
2023/12/26 00:36:04;;;;;;;14.27;4.32;;;9.10;99.90;;;;;;5060774;28;20017;-69
2023/12/26 00:38:30;;;;;;;9.32;3.95;;;9.10;99.90;;;;;;5060082;28;20024;-70
2023/12/26 00:40:55;;;;;;;14.55;4.00;;;9.10;99.90;;;;;;5061148;28;20025;-68
2023/12/26 00:43:21;;;;;;;13.98;4.22;;;9.10;99.90;;;;;;5061341;28;20048;-69
2023/12/26 00:45:47;;;;;;;12.73;3.70;;;9.10;99.90;;;;;;5060174;28;20025;-68
2023/12/26 00:48:13;;;;;;;10.60;4.18;;;9.10;99.90;;;;;;5060953;28;20033;-69
2023/12/26 00:50:41;;;;;;;10.25;4.07;;;9.10;99.90;;;;;;5060946;28;20025;-69
2023/12/26 00:53:10;;;;;;;11.48;3.65;;;9.10;99.90;;;;;;5060952;28;20025;-70
2023/12/26 00:55:37;;;;;;;10.85;3.47;;;9.10;99.90;;;;;;5058514;28;20044;-70
2023/12/26 00:58:03;;;;;;;13.05;3.60;;;9.10;99.90;;;;;;5060492;28;20025;-71
2023/12/26 01:00:29;;;;;;;9.50;3.63;;;9.10;99.90;;;;;;5060823;28;20024;-69
2023/12/26 01:02:54;;;;;;;12.23;3.67;;;9.10;99.90;;;;;;5060742;28;20052;-70
2023/12/26 01:05:20;;;;;;;12.65;3.88;;;9.10;99.90;;;;;;5061039;28;20036;-69
2023/12/26 01:07:46;;;;;;;13.02;3.75;;;9.10;99.90;;;;;;5060486;28;20374;-70
2023/12/26 01:10:12;;;;;;;8.32;3.45;;;9.10;99.90;;;;;;5060536;28;20044;-69
2023/12/26 01:12:37;;;;;;;8.85;3.38;;;9.10;99.90;;;;;;5059835;28;20021;-71
2023/12/26 01:15:03;;;;;;;9.68;3.45;;;9.10;99.90;;;;;;5061021;28;20458;-71
2023/12/26 01:17:29;;;;;;;8.02;3.22;;;9.10;99.90;;;;;;5061324;28;20017;-70
2023/12/26 01:19:54;;;;;;;6.32;3.17;;;9.10;99.90;;;;;;5061181;28;20107;-72
2023/12/26 01:22:20;;;;;;;6.85;2.60;;;9.10;99.90;;;;;;5061540;28;20110;-70
2023/12/26 01:24:47;;;;;;;5.30;2.97;;;9.10;99.90;;;;;;5061167;28;20033;-69
2023/12/26 01:27:13;;;;;;;5.13;2.38;;;9.10;99.90;;;;;;5061356;28;20029;-69
2023/12/26 01:29:39;;;;;;;5.93;2.50;;;9.10;99.90;;;;;;5060454;28;20557;-70
2023/12/26 01:32:05;;;;;;;4.80;2.17;;;9.10;99.90;;;;;;5059633;28;20101;-69
2023/12/26 01:34:30;;;;;;;4.13;1.98;;;9.10;99.90;;;;;;5060317;28;20470;-69
2023/12/26 01:36:56;;;;;;;9.27;2.00;;;9.10;99.90;;;;;;5061145;28;20054;-68
2023/12/26 01:39:21;;;;;;;3.35;1.92;;;9.10;99.90;;;;;;5061378;28;20025;-71
2023/12/26 01:41:47;;;;;;;3.80;1.60;;;9.00;99.90;;;;;;5059959;28;20021;-68
2023/12/26 01:44:13;;;;;;;3.88;1.67;;;9.10;99.90;;;;;;5063971;28;20032;-69
2023/12/26 01:46:39;;;;;;;3.45;1.40;;;9.00;99.90;;;;;;5063091;28;20056;-69
2023/12/26 01:49:04;;;;;;;5.28;1.55;;;9.00;99.90;;;;;;5064891;28;20032;-69
2023/12/26 01:51:31;;;;;;;2.78;1.40;;;9.10;99.90;;;;;;5063482;28;20043;-68
2023/12/26 01:53:58;;;;;;;3.72;1.52;;;9.00;99.90;;;;;;5065009;28;20025;-69
2023/12/26 01:56:26;;;;;;;2.42;1.30;;;9.00;99.90;;;;;;5063346;28;20029;-67
2023/12/26 01:58:52;;;;;;;2.70;1.25;;;9.00;99.90;;;;;;5063650;28;20021;-70
2023/12/26 02:01:18;;;;;;;4.82;1.40;;;9.00;99.90;;;;;;5064976;28;20021;-70
2023/12/26 02:03:44;;;;;;;3.05;1.05;;;9.00;99.90;;;;;;5064688;28;20148;-70
2023/12/26 02:06:10;;;;;;;2.28;1.15;;;9.00;99.90;;;;;;5063362;28;20021;-71
2023/12/26 02:08:37;;;;;;;6.20;1.30;;;9.00;99.90;;;;;;5064445;28;20097;-70
2023/12/26 02:11:03;;;;;;;6.90;1.17;;;9.00;99.90;;;;;;5064555;28;20024;-70
2023/12/26 02:13:29;;;;;;;2.08;1.20;;;9.00;99.90;;;;;;5062869;28;20441;-71
2023/12/26 02:15:58;;;;;;;3.20;1.27;;;9.00;99.90;;;;;;5063855;28;20028;-72
2023/12/26 02:18:31;;;;;;;2.47;1.23;;;9.00;99.90;;;;;;5064159;28;20017;-70
2023/12/26 02:20:56;;;;;;;3.97;1.30;;;9.00;99.90;;;;;;5060368;28;20560;-70
2023/12/26 02:23:25;;;;;;;3.00;1.13;;;9.00;99.90;;;;;;5062801;28;20037;-69
2023/12/26 02:25:51;;;;;;;2.95;1.15;;;9.00;99.90;;;;;;5063152;28;20075;-69
2023/12/26 02:28:17;;;;;;;4.03;1.10;;;9.00;99.90;;;;;;5063790;28;20036;-69
2023/12/26 02:30:44;;;;;;;2.05;1.00;;;9.00;99.90;;;;;;5063038;28;20021;-70
2023/12/26 02:33:10;;;;;;;3.17;1.00;;;9.00;99.90;;;;;;5062402;28;20674;-68
2023/12/26 02:35:36;;;;;;;4.15;1.38;;;9.00;99.90;;;;;;5063495;28;20088;-69
2023/12/26 02:38:02;;;;;;;3.47;1.20;;;9.00;99.90;;;;;;5063564;28;20013;-70
2023/12/26 02:40:27;;;;;;;3.53;1.15;;;9.00;99.90;;;;;;5062507;28;20092;-70
2023/12/26 02:42:53;;;;;;;2.78;1.15;;;9.00;99.90;;;;;;5063031;28;20021;-69
2023/12/26 02:45:18;;;;;;;1.77;1.20;;;9.00;99.90;;;;;;5063573;28;20532;-70
2023/12/26 02:47:44;;;;;;;2.53;1.30;;;9.00;99.90;;;;;;5063427;28;20040;-72
2023/12/26 02:50:10;;;;;;;3.20;1.35;;;9.10;99.90;;;;;;5063183;28;20482;-68
2023/12/26 02:52:35;;;;;;;3.17;1.38;;;9.10;99.90;;;;;;5063329;28;20059;-67
2023/12/26 02:55:01;;;;;;;3.63;1.55;;;9.00;99.90;;;;;;5060965;28;20114;-68
2023/12/26 02:57:26;;;;;;;2.45;1.73;;;9.10;99.90;;;;;;5063077;28;20036;-73
2023/12/26 02:59:52;;;;;;;2.47;1.65;;;9.10;99.90;;;;;;5061544;28;20032;-70
2023/12/26 03:02:18;;;;;;;3.10;1.80;;;9.10;99.90;;;;;;5062968;28;20077;-69
2023/12/26 03:04:44;;;;;;;3.70;1.65;;;9.10;99.90;;;;;;5062648;28;20036;-70
2023/12/26 03:07:10;;;;;;;2.47;1.67;;;9.10;99.90;;;;;;5061648;28;20021;-70
2023/12/26 03:09:35;;;;;;;2.90;1.55;;;9.10;99.90;;;;;;5062779;28;20033;-69
2023/12/26 03:12:01;;;;;;;5.82;1.77;;;9.10;99.90;;;;;;5061632;28;20037;-72
2023/12/26 03:14:26;;;;;;;3.05;1.73;;;9.10;99.90;;;;;;5062674;28;20028;-70
2023/12/26 03:16:52;;;;;;;3.78;1.50;;;9.10;99.90;;;;;;5062924;28;20035;-72
2023/12/26 03:19:17;;;;;;;3.25;1.38;;;9.10;99.90;;;;;;5062912;28;20029;-68
2023/12/26 03:21:43;;;;;;;2.33;1.40;;;9.10;99.90;;;;;;5062763;28;20029;-71
2023/12/26 03:24:08;;;;;;;2.83;1.40;;;9.10;99.90;;;;;;5062484;28;20040;-66
2023/12/26 03:26:34;;;;;;;1.50;1.13;;;9.10;99.90;;;;;;5062543;28;20031;-67
2023/12/26 03:28:59;;;;;;;3.20;1.30;;;9.10;99.90;;;;;;5062692;28;20082;-68
2023/12/26 03:31:25;;;;;;;2.53;1.30;;;9.10;99.90;;;;;;5062504;28;20351;-72
2023/12/26 03:33:55;;;;;;;2.55;1.30;;;9.20;99.90;;;;;;5061651;28;20036;-68
2023/12/26 03:36:20;;;;;;;2.92;1.20;;;9.20;99.90;;;;;;5062391;28;20036;-68
2023/12/26 03:38:47;;;;;;;5.85;1.70;;;9.20;99.90;;;;;;5060535;28;20029;-68
2023/12/26 03:41:13;;;;;;;5.30;1.52;;;9.20;99.90;;;;;;5061049;28;20041;-72
2023/12/26 03:43:38;;;;;;;5.28;2.20;;;9.10;99.90;;;;;;5061477;28;20068;-69
2023/12/26 03:46:04;;;;;;;3.45;1.60;;;9.20;99.90;;;;;;5062896;28;20025;-71
2023/12/26 03:48:30;;;;;;;5.63;1.80;;;9.10;99.90;;;;;;5061608;28;20108;-69
2023/12/26 03:50:55;;;;;;;7.38;1.65;;;9.10;99.90;;;;;;5062537;28;20028;-69
2023/12/26 03:53:21;;;;;;;4.57;1.70;;;9.20;99.90;;;;;;5062835;28;20028;-69
2023/12/26 03:55:46;;;;;;;8.15;2.10;;;9.20;99.90;;;;;;5062821;28;20644;-69
2023/12/26 03:58:12;;;;;;;4.78;1.67;;;9.20;99.90;;;;;;5062604;28;20047;-71
2023/12/26 04:00:38;;;;;;;4.20;1.48;;;9.10;99.90;;;;;;5061003;28;20025;-71
2023/12/26 04:03:04;;;;;;;8.63;1.60;;;9.10;99.90;;;;;;5062238;28;20052;-70
2023/12/26 04:05:29;;;;;;;6.93;1.45;;;9.10;99.90;;;;;;5062410;28;20089;-73
2023/12/26 04:07:55;;;;;;;7.10;1.38;;;9.00;99.90;;;;;;5062459;28;20029;-74
2023/12/26 04:10:20;;;;;;;7.95;1.45;;;9.00;99.90;;;;;;5060999;28;20029;-69
2023/12/26 04:12:47;;;;;;;7.90;1.85;;;9.00;99.90;;;;;;5059758;28;20163;-72
2023/12/26 04:15:13;;;;;;;5.75;1.30;;;9.00;99.90;;;;;;5062350;28;20390;-69
2023/12/26 04:17:39;;;;;;;6.25;1.48;;;9.00;99.90;;;;;;5062204;28;20017;-69
2023/12/26 04:20:05;;;;;;;7.90;1.50;;;9.00;99.90;;;;;;5062283;28;20021;-69
2023/12/26 04:22:30;;;;;;;13.63;1.95;;;9.00;99.90;;;;;;5062036;28;20107;-73
2023/12/26 04:24:56;;;;;;;7.82;1.42;;;9.00;99.90;;;;;;5062202;28;20096;-68
2023/12/26 04:27:22;;;;;;;9.40;1.60;;;9.00;99.90;;;;;;5062010;28;20037;-71
2023/12/26 04:29:47;;;;;;;7.88;1.70;;;9.00;99.90;;;;;;5061447;28;20092;-73
2023/12/26 04:32:13;;;;;;;7.15;1.85;;;9.10;99.90;;;;;;5060734;28;20025;-71
2023/12/26 04:34:39;;;;;;;7.45;1.88;;;9.00;99.90;;;;;;5061862;28;20056;-69
2023/12/26 04:37:04;;;;;;;14.23;2.08;;;9.00;99.90;;;;;;5061862;28;20017;-71
2023/12/26 04:39:30;;;;;;;14.95;2.85;;;9.00;99.90;;;;;;5061931;28;20032;-71
2023/12/26 04:41:56;;;;;;;9.07;2.20;;;8.90;99.90;;;;;;5061973;28;20496;-71
2023/12/26 04:44:23;;;;;;;12.85;2.45;;;8.90;99.90;;;;;;5062034;28;20081;-70
2023/12/26 04:46:50;;;;;;;10.85;2.65;;;8.90;99.90;;;;;;5061805;28;20119;-70
2023/12/26 04:49:15;;;;;;;12.95;2.70;;;8.90;99.90;;;;;;5060758;28;20386;-69
2023/12/26 04:51:41;;;;;;;11.48;2.88;;;8.90;99.90;;;;;;5058691;28;20028;-72
2023/12/26 04:54:07;;;;;;;14.13;2.78;;;8.90;99.90;;;;;;5060892;28;20025;-72
2023/12/26 04:56:32;;;;;;;14.95;2.78;;;8.90;99.90;;;;;;5059478;28;20024;-73
2023/12/26 04:58:58;;;;;;;13.07;3.00;;;8.90;99.90;;;;;;5060738;28;20025;-72
2023/12/26 05:01:23;;;;;;;14.57;2.67;;;8.80;99.90;;;;;;5059596;28;20048;-73
2023/12/26 05:03:49;;;;;;;14.23;2.67;;;8.80;99.90;;;;;;5060554;28;20045;-71
2023/12/26 05:06:19;;;;;;;13.02;2.97;;;8.80;99.90;;;;;;5059728;28;20032;-71
2023/12/26 05:08:44;;;;;;;12.57;2.70;;;8.80;99.90;;;;;;5059028;28;20041;-73
2023/12/26 05:11:21;;;;;;;13.50;2.42;;;8.80;99.90;;;;;;5060148;28;20028;-74
2023/12/26 05:13:47;;;;;;;18.75;3.22;;;8.70;99.90;;;;;;5059764;28;20059;-72
2023/12/26 05:16:12;;;;;;;14.27;2.67;;;8.80;99.90;;;;;;5060888;28;20017;-74
2023/12/26 05:18:38;;;;;;;12.95;3.00;;;8.70;99.90;;;;;;5058159;28;21090;-72
2023/12/26 05:21:03;;;;;;;17.02;3.03;;;8.70;99.90;;;;;;5059882;28;20055;-69
2023/12/26 05:23:29;;;;;;;19.02;3.10;;;8.70;99.90;;;;;;5060311;28;20056;-71
2023/12/26 05:25:57;;;;;;;13.77;2.90;;;8.70;99.90;;;;;;5059006;28;20421;-71
2023/12/26 05:28:23;;;;;;;19.30;2.92;;;8.70;99.90;;;;;;5060263;28;20056;-73
2023/12/26 05:30:48;;;;;;;15.38;2.90;;;8.60;99.90;;;;;;5058647;28;20021;-74
2023/12/26 05:33:14;;;;;;;14.05;2.85;;;8.60;99.90;;;;;;5058811;28;20047;-71
2023/12/26 05:35:39;;;;;;;11.32;2.65;;;8.60;99.90;;;;;;5059276;28;20116;-74
2023/12/26 05:38:05;;;;;;;18.52;2.70;;;8.60;99.90;;;;;;5059364;28;20025;-74
2023/12/26 05:40:31;;;;;;;14.73;2.65;;;8.60;99.90;;;;;;5060989;28;20082;-72
2023/12/26 05:42:56;;;;;;;16.20;3.15;;;8.60;99.90;;;;;;5059741;28;20091;-73
2023/12/26 05:45:22;;;;;;;19.25;3.08;;;8.50;99.90;;;;;;5061219;28;20386;-74
2023/12/26 05:47:47;;;;;;;9.57;1.95;;;8.50;99.90;;;;;;5061062;28;20036;-71
2023/12/26 05:50:13;;;;;;;16.23;2.50;;;8.40;99.90;;;;;;5060807;28;20033;-69
2023/12/26 05:52:38;;;;;;;17.60;2.67;;;8.40;99.90;;;;;;5060755;28;20021;-71
2023/12/26 05:55:04;;;;;;;9.15;2.05;;;8.40;99.90;;;;;;5058108;28;20031;-70
2023/12/26 05:57:30;;;;;;;9.48;1.85;;;8.40;99.90;;;;;;5060891;28;20021;-71
2023/12/26 05:59:55;;;;;;;9.45;2.10;;;8.40;99.90;;;;;;5059687;28;20038;-72
2023/12/26 06:02:21;;;;;;;13.18;3.30;;;8.40;99.90;;;;;;5057729;28;20145;-69
2023/12/26 06:04:47;;;;;;;20.58;3.15;;;8.40;99.90;;;;;;5059041;28;20054;-70
2023/12/26 06:07:12;;;;;;;15.07;2.67;;;8.40;99.90;;;;;;5057015;28;20081;-73
2023/12/26 06:09:38;;;;;;;17.63;2.85;;;8.30;99.90;;;;;;5059747;28;20037;-70
2023/12/26 06:12:05;;;;;;;20.30;2.80;;;8.30;99.90;;;;;;5059229;28;20059;-68
2023/12/26 06:14:30;;;;;;;16.23;2.28;;;8.30;99.90;;;;;;5058722;28;20037;-70
2023/12/26 06:16:57;;;;;;;17.40;2.38;;;8.30;99.90;;;;;;5057150;28;20029;-71
2023/12/26 06:19:22;;;;;;;19.15;2.80;;;8.30;99.90;;;;;;5060826;28;20028;-72
2023/12/26 06:21:48;;;;;;;18.70;2.40;;;8.20;99.90;;;;;;5059330;28;20025;-71
2023/12/26 06:24:14;;;;;;;21.00;2.47;;;8.20;99.90;;;;;;5058724;28;20041;-70
2023/12/26 06:26:39;;;;;;;16.25;2.38;;;8.20;99.90;;;;;;5059539;28;20024;-69
2023/12/26 06:29:05;;;;;;;12.60;2.60;;;8.20;99.90;;;;;;5061220;28;20040;-67
2023/12/26 06:31:30;;;;;;;15.32;2.28;;;8.20;99.90;;;;;;5064174;28;20047;-71
2023/12/26 06:33:56;;;;;;;24.73;2.70;;;8.10;99.90;;;;;;5063171;28;20112;-69
2023/12/26 06:36:21;;;;;;;20.48;2.80;;;8.10;99.90;;;;;;5063582;28;20028;-69
2023/12/26 06:38:47;;;;;;;15.65;2.67;;;8.00;99.90;;;;;;5061898;28;20036;-71
2023/12/26 06:41:14;;;;;;;21.85;2.67;;;8.00;99.90;;;;;;5062340;28;20025;-69
2023/12/26 06:43:39;;;;;;;19.73;2.63;;;8.00;99.90;;;;;;5063834;28;20470;-72
2023/12/26 06:46:05;;;;;;;17.60;2.97;;;8.00;99.90;;;;;;5063052;28;20075;-70
2023/12/26 06:48:31;;;;;;;19.65;2.88;;;8.00;99.90;;;;;;5060904;28;20040;-71
2023/12/26 06:50:57;;;;;;;17.17;2.35;;;8.10;99.90;;;;;;5062052;28;20044;-68
2023/12/26 06:53:23;;;;;;;22.63;2.90;;;8.10;99.90;;;;;;5062233;28;20029;-70
2023/12/26 06:55:48;;;;;;;16.85;2.65;;;8.10;99.90;;;;;;5063459;28;20040;-71
2023/12/26 06:58:14;;;;;;;22.63;2.88;;;8.10;99.90;;;;;;5063318;28;20025;-71
2023/12/26 07:00:39;;;;;;;21.70;2.95;;;8.10;99.90;;;;;;5063446;28;20037;-71
2023/12/26 07:03:05;;;;;;;17.50;2.65;;;8.10;99.90;;;;;;5060205;28;20114;-73
2023/12/26 07:05:31;;;;;;;21.27;2.58;;;8.10;99.90;;;;;;5059189;28;20021;-73
2023/12/26 07:07:56;;;;;;;18.45;2.83;;;8.10;99.90;;;;;;5060754;28;20044;-70
2023/12/26 07:10:22;;;;;;;23.60;2.92;;;8.10;99.90;;;;;;5063561;28;20092;-69
2023/12/26 07:12:47;;;;;;;15.95;2.92;;;8.20;99.90;;;;;;5062897;28;20036;-70
2023/12/26 07:15:13;;;;;;;20.05;3.03;;;8.20;99.90;;;;;;5062276;28;21904;-70
2023/12/26 07:17:39;;;;;;;22.42;3.17;;;8.20;99.90;;;;;;5060233;28;20131;-68
2023/12/26 07:20:08;;;;;;;16.35;2.45;;;8.20;99.90;;;;;;5063206;28;20062;-70
2023/12/26 07:22:33;;;;;;;24.40;3.45;;;8.20;99.90;;;;;;5063236;28;20433;-74
2023/12/26 07:24:59;;;;;;;24.05;4.70;;;8.20;99.90;;;;;;5061468;28;20072;-69
2023/12/26 07:27:24;;;;;;;23.42;4.68;;;8.20;99.90;;;;;;5061874;28;20068;-72
2023/12/26 07:29:53;;;;;;;24.23;3.28;;;8.20;99.90;;;;;;5063089;28;20459;-70
2023/12/26 07:32:20;;;;;;;21.73;3.20;;;8.20;99.90;;;;;;5062019;28;20110;-74
2023/12/26 07:34:47;;;;;;;24.88;2.80;;;8.20;99.90;;;;;;5061629;28;20041;-69
2023/12/26 07:37:12;;;;;;;20.73;2.63;;;8.20;99.90;;;;;;5061915;28;20016;-67
2023/12/26 07:39:38;;;;;;;14.90;3.03;;;8.20;99.90;;;;;;5057767;28;20075;-69
2023/12/26 07:42:03;;;;;;;21.42;3.17;;;8.20;99.90;;;;;;5055708;28;20436;-71
2023/12/26 07:44:29;;;;;;;19.75;2.95;;;8.20;99.90;;;;;;5061088;28;20032;-69
2023/12/26 07:47:02;;;;;;;22.02;3.25;;;8.20;99.90;;;;;;5060265;28;20033;-71
2023/12/26 07:49:35;;;;;;;23.77;2.92;;;8.20;99.90;;;;;;5060845;28;20533;-73
2023/12/26 07:52:00;;;;;;;17.38;3.10;;;8.20;99.90;;;;;;5059415;28;20030;-70
2023/12/26 07:54:26;;;;;;;16.88;2.53;;;8.20;99.90;;;;;;5060542;28;20048;-68
2023/12/26 07:56:51;;;;;;;19.10;2.30;;;8.20;99.90;;;;;;5062739;28;20029;-71
2023/12/26 07:59:17;;;;;;;23.85;3.55;;;8.20;99.90;;;;;;5061132;28;20037;-70
2023/12/26 08:01:42;;;;;;;18.83;3.22;;;8.30;99.90;;;;;;5060828;28;20025;-72
2023/12/26 08:04:08;;;;;;;13.48;2.22;;;8.30;99.90;;;;;;5060761;28;20408;-70
2023/12/26 08:06:33;;;;;;;14.43;2.38;;;8.30;99.90;;;;;;5057458;28;20033;-72
2023/12/26 08:08:59;;;;;;;13.18;2.10;;;8.30;99.90;;;;;;5057372;28;20065;-74
2023/12/26 08:11:28;;;;;;;19.02;2.85;;;8.30;99.90;;;;;;5061050;28;20035;-69
2023/12/26 08:13:53;;;;;;;22.45;2.83;;;8.30;99.90;;;;;;5058798;28;20106;-70
2023/12/26 08:16:19;;;;;;;13.57;2.55;;;8.30;99.90;;;;;;5060452;28;20037;-72
2023/12/26 08:18:44;;;;;;;14.75;2.40;;;8.30;99.90;;;;;;5057183;28;20124;-69
2023/12/26 08:21:10;;;;;;;19.35;2.42;;;8.30;99.90;;;;;;5058657;28;20091;-69
2023/12/26 08:23:36;;;;;;;20.20;3.55;;;8.30;99.90;;;;;;5057977;28;20037;-70
2023/12/26 08:26:07;;;;;;;16.05;2.20;;;8.30;99.90;;;;;;5057361;28;20025;-70
2023/12/26 08:28:34;;;;;;;16.83;2.25;;;8.30;99.90;;;;;;5061542;28;20037;-72
2023/12/26 08:30:59;;;;;;;13.43;2.58;;;8.30;99.90;;;;;;5059691;28;20021;-67
2023/12/26 08:33:25;;;;;;;13.20;1.85;;;8.30;99.90;;;;;;5058992;28;20074;-69
2023/12/26 08:35:51;;;;;;;20.10;2.78;;;8.30;99.90;;;;;;5059251;28;20081;-68
2023/12/26 08:38:16;;;;;;;18.60;3.17;;;8.30;99.90;;;;;;5057407;28;20084;-69
2023/12/26 08:40:42;;;;;;;14.48;2.13;;;8.30;99.90;;;;;;5056576;28;20034;-67
2023/12/26 08:43:08;;;;;;;17.00;2.58;;;8.30;99.90;;;;;;5061101;28;20029;-69
2023/12/26 08:45:34;;;;;;;12.10;2.28;;;8.30;99.90;;;;;;5058511;28;20033;-69
2023/12/26 08:48:00;;;;;;;17.17;3.15;;;8.30;99.90;;;;;;5053844;28;20025;-69
2023/12/26 08:50:26;;;;;;;16.30;2.20;;;8.40;99.90;;;;;;5058177;28;20036;-77
2023/12/26 08:52:51;;;;;;;22.23;2.60;;;8.40;99.90;;;;;;5055832;28;20124;-73
2023/12/26 08:55:17;;;;;;;23.80;2.58;;;8.40;99.90;;;;;;5060625;28;20063;-69
2023/12/26 08:57:43;;;;;;;16.27;2.50;;;8.40;99.90;;;;;;5061240;28;20029;-69
2023/12/26 09:00:10;;;;;;;17.65;3.42;;;8.40;99.90;;;;;;5061517;28;20025;-68
2023/12/26 09:02:36;;;;;;;15.07;2.25;;;8.40;99.90;;;;;;5057708;28;20053;-69
2023/12/26 09:05:02;;;;;;;19.83;2.40;;;8.40;99.90;;;;;;5059140;28;20112;-70
2023/12/26 09:07:29;;;;;;;14.35;2.28;;;8.50;99.90;;;;;;5059219;28;20087;-68
2023/12/26 09:09:55;;;;;;;14.93;2.83;;;8.50;99.90;;;;;;5059324;28;20064;-71
2023/12/26 09:12:21;;;;;;;19.48;3.67;;;8.50;99.90;;;;;;5059672;28;20710;-70
2023/12/26 09:14:47;;;;;;;18.63;4.50;;;8.50;99.90;;;;;;5060683;28;20009;-70
2023/12/26 09:17:13;;;;;;;19.63;3.83;;;8.60;99.90;;;;;;5061009;28;20025;-71
2023/12/26 09:19:40;;;;;;;13.10;2.50;;;8.50;99.90;;;;;;5057391;28;20503;-67
2023/12/26 09:22:05;;;;;;;22.15;3.35;;;8.60;99.90;;;;;;5057549;28;20093;-68
2023/12/26 09:24:31;;;;;;;14.98;2.95;;;8.60;99.90;;;;;;5061221;28;20061;-66
2023/12/26 09:26:56;;;;;;;16.75;3.13;;;8.60;99.90;;;;;;5059765;28;20095;-69
2023/12/26 09:29:22;;;;;;;20.95;3.63;;;8.60;99.90;;;;;;5061055;28;20482;-73
2023/12/26 09:31:48;;;;;;;16.88;2.50;;;8.60;99.90;;;;;;5050157;28;20029;-69
2023/12/26 09:34:13;;;;;;;21.55;3.55;;;8.60;99.90;;;;;;5060163;28;20025;-73
2023/12/26 09:36:39;;;;;;;17.80;2.60;;;8.60;99.90;;;;;;5060795;28;20120;-71
2023/12/26 09:39:05;;;;;;;12.38;2.50;;;8.60;99.90;;;;;;5059596;28;20083;-69
2023/12/26 09:41:31;;;;;;;11.32;1.95;;;8.60;99.90;;;;;;5059674;28;20028;-70
2023/12/26 09:43:57;;;;;;;20.92;2.83;;;8.70;99.90;;;;;;5060995;28;20029;-69
2023/12/26 09:46:23;;;;;;;19.90;3.17;;;8.70;99.90;;;;;;5059248;28;20021;-70
2023/12/26 09:48:49;;;;;;;14.25;2.22;;;8.60;99.90;;;;;;5057502;28;20088;-73
2023/12/26 09:51:21;;;;;;;16.23;2.70;;;8.60;99.90;;;;;;5057097;28;20071;-72
2023/12/26 09:53:51;;;;;;;14.00;2.70;;;8.60;99.90;;;;;;5050757;28;20037;-74
2023/12/26 09:56:17;;;;;;;20.65;2.30;;;8.60;99.90;;;;;;5058268;28;20061;-73
2023/12/26 09:58:43;;;;;;;15.25;2.45;;;8.60;99.90;;;;;;5056554;28;20036;-68
2023/12/26 10:01:13;;;;;;;16.13;2.42;;;8.60;99.90;;;;;;5059271;28;20088;-70
2023/12/26 10:03:39;;;;;;;18.42;2.80;;;8.70;99.90;;;;;;5060074;28;20045;-68
2023/12/26 10:06:06;;;;;;;14.68;2.65;;;8.80;99.90;;;;;;5063417;28;20044;-70
2023/12/26 10:08:32;;;;;;;23.83;2.85;;;8.80;99.90;;;;;;5059417;28;20048;-72
2023/12/26 10:10:58;;;;;;;16.38;2.97;;;8.90;99.90;;;;;;5056905;28;20025;-70
2023/12/26 10:13:24;;;;;;;17.38;3.10;;;8.90;99.90;;;;;;5059428;28;20068;-72
2023/12/26 10:15:50;;;;;;;18.55;3.50;;;8.90;99.90;;;;;;5057896;28;20146;-71
2023/12/26 10:18:16;;;;;;;21.00;2.75;;;8.90;99.90;;;;;;5059283;28;20140;-68
2023/12/26 10:20:42;;;;;;;17.88;2.92;;;8.80;99.90;;;;;;5062545;28;20037;-72
2023/12/26 10:23:08;;;;;;;19.23;2.40;;;8.90;99.90;;;;;;5061991;28;20473;-68
2023/12/26 10:25:34;;;;;;;20.13;2.65;;;8.90;99.90;;;;;;5063482;28;20036;-75
2023/12/26 10:28:00;;;;;;;19.63;2.63;;;8.90;99.90;;;;;;5061932;28;20136;-73
2023/12/26 10:30:26;;;;;;;18.27;2.65;;;8.90;99.90;;;;;;5062949;28;20044;-72
2023/12/26 10:33:01;;;;;;;19.65;3.00;;;9.00;99.90;;;;;;5062888;28;20109;-74
2023/12/26 10:35:27;;;;;;;21.77;3.97;;;8.90;99.90;;;;;;5063526;28;20025;-70
2023/12/26 10:37:56;;;;;;;21.17;3.25;;;8.90;99.90;;;;;;5062976;28;20044;-71
2023/12/26 10:40:22;;;;;;;21.50;3.03;;;8.90;99.90;;;;;;5064282;28;20060;-71
2023/12/26 10:42:51;;;;;;;15.38;2.47;;;8.90;99.90;;;;;;5062744;28;20028;-69
2023/12/26 10:45:19;;;;;;;20.30;3.47;;;8.90;99.90;;;;;;5062399;28;20037;-70
2023/12/26 10:47:48;;;;;;;18.02;2.90;;;8.90;99.90;;;;;;5056566;28;20458;-70
2023/12/26 10:50:18;;;;;;;16.85;2.67;;;8.80;99.90;;;;;;5061340;28;20059;-71
2023/12/26 10:52:52;;;;;;;21.15;2.53;;;8.80;99.90;;;;;;5054823;28;20028;-76
2023/12/26 10:55:19;;;;;;;;;;;8.80;99.90;;;;;;5060938;28;20040;-73
2023/12/26 10:57:46;;;;;;;18.08;2.63;;;8.80;99.90;;;;;;5056050;28;19916;-71
2023/12/26 11:00:12;;;;;;;16.83;2.95;;;8.70;99.90;;;;;;5058556;28;20035;-72
2023/12/26 11:02:40;;;;;;;23.60;3.22;;;8.80;99.90;;;;;;5059479;28;20060;-73
2023/12/26 11:05:05;;;;;;;20.40;2.80;;;8.80;99.90;;;;;;5058863;28;20084;-70
2023/12/26 11:07:31;;;;;;;17.25;3.45;;;8.80;99.90;;;;;;5058067;28;20025;-73
2023/12/26 11:09:57;;;;;;;19.30;3.20;;;8.90;99.90;;;;;;5059679;28;20049;-72
2023/12/26 11:12:26;;;;;;;24.60;3.17;;;8.90;99.90;;;;;;5054764;28;20035;-73
2023/12/26 11:14:54;;;;;;;17.17;3.05;;;9.00;99.90;;;;;;5058913;28;20052;-71
2023/12/26 11:17:20;;;;;;;21.13;2.67;;;9.00;99.90;;;;;;5060569;28;20021;-74
2023/12/26 11:19:45;;;;;;;18.55;3.25;;;9.10;99.90;;;;;;5061274;28;20029;-71
2023/12/26 11:22:11;;;;;;;24.23;2.67;;;9.00;99.90;;;;;;5062705;28;20043;-68
2023/12/26 11:24:38;;;;;;;14.95;2.50;;;9.00;99.90;;;;;;5061795;28;20088;-70
2023/12/26 11:27:04;;;;;;;22.73;2.80;;;9.00;99.90;;;;;;5062016;28;20029;-69
2023/12/26 11:29:29;;;;;;;15.57;3.25;;;9.00;99.90;;;;;;5060610;28;20032;-70
2023/12/26 11:31:56;;;;;;;24.13;3.03;;;8.90;99.90;;;;;;5062744;28;20029;-69
2023/12/26 11:34:23;;;;;;;22.33;3.45;;;9.00;99.90;;;;;;5062682;28;20021;-71
2023/12/26 11:36:50;;;;;;;19.50;3.13;;;9.00;99.90;;;;;;5061993;28;20409;-69
2023/12/26 11:39:17;;;;;;;18.92;3.35;;;9.00;99.90;;;;;;5058775;28;20049;-67
2023/12/26 11:41:43;;;;;;;18.38;3.40;;;9.20;99.90;;;;;;5058975;28;20080;-68
2023/12/26 11:44:10;;;;;;;21.23;2.97;;;9.50;99.90;;;;;;5054567;28;20564;-70
2023/12/26 11:46:36;;;;;;;14.55;2.88;;;9.70;99.90;;;;;;5052029;28;20056;-70
2023/12/26 11:49:02;;;;;;;20.77;2.97;;;9.70;99.90;;;;;;5058171;28;20052;-71
2023/12/26 11:51:28;;;;;;;21.13;3.20;;;9.60;99.90;;;;;;5059045;28;20389;-71
2023/12/26 11:53:53;;;;;;;22.05;3.70;;;9.40;99.90;;;;;;5061659;28;20036;-68
2023/12/26 11:56:19;;;;;;;22.63;4.07;;;9.40;99.90;;;;;;5060113;28;20037;-69
2023/12/26 11:58:45;;;;;;;23.77;4.00;;;9.30;99.90;;;;;;5060510;28;20029;-70
2023/12/26 12:01:10;;;;;;;16.52;3.72;;;9.20;99.90;;;;;;5059171;28;20036;-69
2023/12/26 12:03:36;;;;;;;18.70;3.58;;;9.20;99.90;;;;;;5060357;28;20056;-68
2023/12/26 12:06:15;;;;;;;17.20;3.00;;;9.20;99.90;;;;;;5060786;28;20019;-72
2023/12/26 12:09:03;;;;;;;16.45;2.63;;;9.30;99.90;;;;;;5059278;28;20036;-69
2023/12/26 12:11:29;;;;;;;22.92;3.60;;;9.30;99.90;;;;;;5058389;28;20029;-70
2023/12/26 12:13:54;;;;;;;17.88;2.88;;;9.30;99.90;;;;;;5056137;28;20029;-72
2023/12/26 12:16:24;;;;;;;19.17;2.70;;;9.30;99.90;;;;;;5059504;28;20367;-74
2023/12/26 12:19:02;;;;;;;13.65;2.60;;;9.30;99.90;;;;;;5059186;28;20074;-71
2023/12/26 12:21:40;;;;;;;16.55;3.10;;;9.30;99.90;;;;;;5058529;28;20063;-72
2023/12/26 12:24:06;;;;;;;19.27;3.60;;;9.40;99.90;;;;;;5059085;28;20029;-68
2023/12/26 12:27:13;;;;;;;13.68;2.95;;;9.40;99.90;;;;;;5061418;28;20077;-69
2023/12/26 12:30:00;;;;;;;16.27;2.95;;;9.40;99.90;;;;;;5018748;28;20038;-70
2023/12/26 12:32:33;;;;;;;20.00;3.10;;;9.40;99.90;;;;;;5060100;28;20056;-70
2023/12/26 12:35:16;;;;;;;16.10;2.63;;;9.40;99.90;;;;;;5060771;28;20036;-68
2023/12/26 12:37:42;;;;;;;18.08;3.45;;;9.30;99.90;;;;;;5058873;28;20032;-70
2023/12/26 12:40:08;;;;;;;16.05;3.30;;;9.20;99.90;;;;;;5058760;28;20037;-71
2023/12/26 12:42:34;;;;;;;22.25;2.90;;;9.20;99.90;;;;;;5060198;28;20061;-70
2023/12/26 12:45:00;;;;;;;29.83;7.50;;;9.20;99.90;;;;;;5060909;28;20052;-71
2023/12/26 12:47:27;;;;;;;23.75;5.95;;;9.20;99.90;;;;;;5058512;28;20049;-68